Time;durP1;ratioP1;P1;durP2;ratioP2;P2;SDS_P1;SDS_P2;PMS_P1;PMS_P2;Temp;Humidity;BMP_temperature;BMP_pressure;BME280_temperature;BME280_humidity;BME280_pressure;Samples;Min_cycle;Max_cycle;Signal;HPM_P1;HPM_P2
2021/07/25 00:00:57;;;;;;;13.20;9.30;;;;;;;18.36;68.50;99647.16;4990267;28;20120;-64
2021/07/25 00:03:23;;;;;;;15.82;9.98;;;;;;;18.24;69.31;99641.50;5003525;28;20496;-63
2021/07/25 00:05:50;;;;;;;13.55;9.48;;;;;;;18.28;68.17;99640.03;4994611;28;20120;-64
2021/07/25 00:08:16;;;;;;;16.45;10.55;;;;;;;18.24;68.08;99633.34;4999927;28;20051;-62
2021/07/25 00:10:46;;;;;;;15.02;9.90;;;;;;;18.24;68.08;99635.25;5008642;28;20369;-63
2021/07/25 00:13:14;;;;;;;18.27;10.68;;;;;;;18.16;68.24;99630.84;5003387;28;20073;-64
2021/07/25 00:15:40;;;;;;;15.25;10.10;;;;;;;18.13;68.92;99625.00;4995133;28;20496;-63
2021/07/25 00:18:07;;;;;;;15.85;9.68;;;;;;;18.15;68.03;99629.16;5005019;28;20069;-65
2021/07/25 00:20:33;;;;;;;14.45;10.20;;;;;;;18.18;68.16;99626.03;5008062;28;20081;-60
2021/07/25 00:23:00;;;;;;;13.05;9.73;;;;;;;18.20;68.49;99621.22;5009720;28;20050;-64
2021/07/25 00:25:27;;;;;;;13.23;9.93;;;;;;;18.26;67.83;99611.41;5006733;28;20068;-64
2021/07/25 00:27:55;;;;;;;15.02;9.40;;;;;;;18.23;67.85;99606.38;5005804;28;20479;-65
2021/07/25 00:30:23;;;;;;;13.65;9.27;;;;;;;18.23;67.75;99604.53;4998927;28;20129;-66
2021/07/25 00:32:50;;;;;;;12.07;9.18;;;;;;;18.12;68.88;99607.88;4990308;28;20121;-65
2021/07/25 00:35:18;;;;;;;13.38;9.52;;;;;;;18.07;69.23;99611.19;5002275;28;20045;-63
2021/07/25 00:37:47;;;;;;;13.77;8.95;;;;;;;17.93;70.08;99605.97;5007069;28;20056;-63
2021/07/25 00:40:16;;;;;;;12.13;9.32;;;;;;;17.86;69.94;99596.97;5012040;28;20134;-65
2021/07/25 00:42:42;;;;;;;13.45;9.77;;;;;;;17.80;69.94;99598.63;5009826;28;20064;-65
2021/07/25 00:45:11;;;;;;;14.57;9.88;;;;;;;17.68;70.68;99592.94;4993869;28;20085;-63
2021/07/25 00:47:39;;;;;;;14.23;9.63;;;;;;;17.67;70.78;99587.72;5003525;28;20074;-64
2021/07/25 00:50:08;;;;;;;13.35;9.77;;;;;;;17.68;70.44;99584.81;5003027;28;20057;-64
2021/07/25 00:52:34;;;;;;;14.63;9.32;;;;;;;17.61;70.88;99578.50;5012198;28;20046;-64
2021/07/25 00:55:01;;;;;;;13.10;9.55;;;;;;;17.53;71.48;99584.16;5010843;28;20073;-65
2021/07/25 00:57:28;;;;;;;13.80;8.95;;;;;;;17.50;71.95;99589.97;5004428;28;20058;-62
2021/07/25 00:59:54;;;;;;;14.63;10.73;;;;;;;17.50;71.22;99587.25;4995669;28;20046;-66
2021/07/25 01:02:25;;;;;;;13.95;9.75;;;;;;;17.42;71.94;99599.16;5006235;28;20050;-66
2021/07/25 01:04:57;;;;;;;12.23;9.00;;;;;;;17.32;72.13;99595.97;5002614;28;20104;-65
2021/07/25 01:07:33;;;;;;;15.65;9.88;;;;;;;17.31;72.41;99594.31;5012034;28;20602;-64
2021/07/25 01:10:03;;;;;;;13.20;9.55;;;;;;;17.35;72.46;99597.44;5004316;28;20329;-63
2021/07/25 01:12:38;;;;;;;12.32;8.95;;;;;;;17.44;72.03;99598.94;5010139;28;20123;-63
2021/07/25 01:15:06;;;;;;;13.38;8.52;;;;;;;17.46;72.26;99605.00;5004225;28;20492;-63
2021/07/25 01:17:35;;;;;;;12.32;8.35;;;;;;;17.49;72.09;99601.88;4991817;28;20516;-64
2021/07/25 01:20:05;;;;;;;16.38;9.65;;;;;;;17.56;71.74;99604.59;5009893;28;20088;-64
2021/07/25 01:22:35;;;;;;;12.63;9.20;;;;;;;17.56;71.71;99610.03;4994848;28;20034;-65
2021/07/25 01:25:02;;;;;;;14.90;9.70;;;;;;;17.52;72.07;99606.88;5011992;28;20056;-68
2021/07/25 01:27:34;;;;;;;14.57;9.88;;;;;;;17.51;71.57;99602.50;5008809;28;20046;-68
2021/07/25 01:30:03;;;;;;;13.82;9.75;;;;;;;17.45;72.09;99606.03;4998925;28;20081;-65
2021/07/25 01:32:33;;;;;;;12.48;8.90;;;;;;;17.32;72.61;99595.97;4993987;28;20084;-63
2021/07/25 01:35:00;;;;;;;11.75;9.20;;;;;;;17.23;73.05;99605.31;5009640;28;20058;-65
2021/07/25 01:37:30;;;;;;;13.20;9.43;;;;;;;17.15;73.60;99605.50;5007573;28;20054;-66
2021/07/25 01:39:57;;;;;;;13.48;9.40;;;;;;;17.10;73.92;99605.28;5007082;28;20065;-64
2021/07/25 01:42:31;;;;;;;11.82;8.45;;;;;;;17.08;74.00;99604.66;5009016;28;20054;-66
2021/07/25 01:44:59;;;;;;;14.70;9.88;;;;;;;17.05;73.78;99608.59;5002832;28;20100;-65
2021/07/25 01:47:25;;;;;;;14.95;9.02;;;;;;;17.03;73.92;99607.94;5002639;28;20416;-63
2021/07/25 01:49:51;;;;;;;12.68;9.05;;;;;;;17.01;73.92;99607.31;5006370;28;20574;-65
2021/07/25 01:52:18;;;;;;;17.77;10.88;;;;;;;17.02;73.67;99606.28;5009902;28;20100;-64
2021/07/25 01:54:45;;;;;;;16.55;11.52;;;;;;;17.00;74.29;99608.34;5011429;28;20042;-63
2021/07/25 01:57:12;;;;;;;14.18;9.93;;;;;;;17.01;74.59;99607.31;5003051;28;20460;-64
2021/07/25 01:59:38;;;;;;;12.68;9.63;;;;;;;17.00;75.10;99611.06;5001956;28;20082;-63
2021/07/25 02:02:05;;;;;;;12.70;9.23;;;;;;;17.03;75.19;99615.25;5008923;28;20096;-66
2021/07/25 02:04:31;;;;;;;11.75;8.32;;;;;;;17.06;75.32;99618.41;5009934;28;20099;-63
2021/07/25 02:06:57;;;;;;;12.77;9.20;;;;;;;17.03;75.73;99615.25;5010084;28;20396;-66
2021/07/25 02:09:24;;;;;;;18.13;11.27;;;;;;;16.98;75.35;99621.28;5009592;28;20050;-67
2021/07/25 02:11:51;;;;;;;15.43;10.77;;;;;;;16.91;75.23;99620.38;5002801;28;20073;-64
2021/07/25 02:14:18;;;;;;;15.98;10.95;;;;;;;16.83;76.14;99628.69;5003910;28;20046;-67
2021/07/25 02:16:44;;;;;;;14.82;9.32;;;;;;;16.84;75.40;99625.78;5006290;28;20045;-66
2021/07/25 02:19:10;;;;;;;13.50;9.43;;;;;;;16.87;75.40;99625.38;5007105;28;20467;-65
2021/07/25 02:21:36;;;;;;;13.10;10.02;;;;;;;16.91;75.96;99639.34;5010604;28;20049;-64
2021/07/25 02:24:03;;;;;;;16.23;10.60;;;;;;;16.85;76.34;99630.16;5009776;28;20077;-66
2021/07/25 02:26:30;;;;;;;14.80;10.07;;;;;;;16.84;75.81;99624.97;5002400;28;20147;-66
2021/07/25 02:28:57;;;;;;;13.48;10.10;;;;;;;16.88;75.40;99618.09;5002168;28;20046;-64
2021/07/25 02:31:23;;;;;;;16.00;10.00;;;;;;;16.90;75.30;99618.72;5003487;28;20089;-62
2021/07/25 02:33:50;;;;;;;13.88;10.10;;;;;;;16.88;75.26;99623.50;5010599;28;20054;-64
2021/07/25 02:36:16;;;;;;;16.85;11.57;;;;;;;16.91;75.22;99620.38;5009288;28;20082;-65
2021/07/25 02:38:42;;;;;;;12.85;9.68;;;;;;;16.83;75.87;99617.88;5007922;28;20070;-63
2021/07/25 02:41:09;;;;;;;16.35;10.88;;;;;;;16.80;76.33;99612.81;5006250;28;20070;-65
2021/07/25 02:43:35;;;;;;;15.07;10.20;;;;;;;16.72;76.15;99613.00;5002188;28;20572;-66
2021/07/25 02:46:03;;;;;;;14.52;10.35;;;;;;;16.62;76.54;99607.91;5002275;28;20057;-63
2021/07/25 02:48:29;;;;;;;17.38;11.38;;;;;;;16.58;77.10;99606.63;5007436;28;20355;-64
2021/07/25 02:50:58;;;;;;;15.80;11.15;;;;;;;16.57;77.32;99607.63;5008820;28;20046;-64
2021/07/25 02:53:24;;;;;;;16.20;11.23;;;;;;;16.62;77.25;99605.19;5007208;28;20045;-65
2021/07/25 02:55:51;;;;;;;17.15;11.45;;;;;;;16.61;77.16;99604.34;5008382;28;20077;-64
2021/07/25 02:58:17;;;;;;;12.68;9.40;;;;;;;16.67;77.24;99597.28;5001066;28;20097;-64
2021/07/25 03:00:43;;;;;;;12.63;9.48;;;;;;;16.67;77.18;99600.00;5000042;28;20053;-65
2021/07/25 03:03:11;;;;;;;12.20;9.13;;;;;;;16.71;76.70;99593.19;5003830;28;20109;-64
2021/07/25 03:05:37;;;;;;;16.65;12.13;;;;;;;16.74;76.54;99602.78;5010437;28;20050;-64
2021/07/25 03:08:04;;;;;;;13.75;9.95;;;;;;;16.75;77.31;99607.16;5008297;28;20049;-66
2021/07/25 03:10:31;;;;;;;14.52;10.48;;;;;;;16.71;76.93;99603.19;5007170;28;20136;-67
2021/07/25 03:12:57;;;;;;;15.63;10.18;;;;;;;16.63;77.25;99596.84;5005850;28;20096;-64
2021/07/25 03:15:23;;;;;;;15.63;10.45;;;;;;;16.62;77.60;99595.19;5003726;28;20424;-63
2021/07/25 03:17:52;;;;;;;12.50;9.30;;;;;;;16.61;77.72;99598.94;5000348;28;20046;-65
2021/07/25 03:20:20;;;;;;;14.27;10.45;;;;;;;16.64;77.40;99597.69;5007668;28;20050;-62
2021/07/25 03:22:46;;;;;;;14.25;10.43;;;;;;;16.65;77.47;99594.78;5006227;28;20509;-65
2021/07/25 03:25:13;;;;;;;13.80;10.07;;;;;;;16.72;77.14;99603.00;4999143;28;20067;-63
2021/07/25 03:27:40;;;;;;;14.48;9.93;;;;;;;16.77;76.72;99605.09;5004393;28;20500;-64
2021/07/25 03:30:08;;;;;;;14.40;10.20;;;;;;;16.77;76.68;99600.50;5007964;28;20053;-64
2021/07/25 03:32:34;;;;;;;15.23;10.02;;;;;;;16.78;76.82;99601.34;5009474;28;20038;-65
2021/07/25 03:35:00;;;;;;;17.65;11.48;;;;;;;16.78;76.98;99604.06;5006780;28;20461;-66
2021/07/25 03:37:28;;;;;;;17.98;12.00;;;;;;;16.77;76.92;99600.50;5007963;28;20052;-64
2021/07/25 03:39:55;;;;;;;17.10;12.35;;;;;;;16.78;77.13;99596.75;5005716;28;20046;-65
2021/07/25 03:42:22;;;;;;;13.00;9.77;;;;;;;16.86;76.89;99598.47;5006829;28;20081;-65
2021/07/25 03:44:48;;;;;;;18.23;11.93;;;;;;;17.01;76.39;99609.19;5009061;28;20116;-63
2021/07/25 03:47:15;;;;;;;18.95;13.95;;;;;;;16.93;76.24;99615.63;5007214;28;20145;-66
2021/07/25 03:49:42;;;;;;;14.48;10.70;;;;;;;16.86;76.78;99615.59;5006418;28;20420;-66
2021/07/25 03:52:11;;;;;;;16.65;10.77;;;;;;;16.83;76.84;99623.28;5003025;28;20113;-65
2021/07/25 03:54:42;;;;;;;14.63;9.75;;;;;;;16.85;76.96;99618.50;4987126;28;20082;-63
2021/07/25 03:57:08;;;;;;;13.18;9.27;;;;;;;16.87;76.64;99619.13;5003935;28;20065;-66
2021/07/25 03:59:35;;;;;;;15.68;11.85;;;;;;;16.88;76.79;99620.78;5004835;28;20042;-65
2021/07/25 04:02:01;;;;;;;17.80;11.38;;;;;;;16.98;75.90;99613.16;5008852;28;20038;-65
2021/07/25 04:04:27;;;;;;;15.00;10.82;;;;;;;17.04;75.95;99627.75;5006719;28;20144;-65
2021/07/25 04:06:53;;;;;;;16.45;11.98;;;;;;;17.12;76.59;99631.13;5000169;28;20054;-66
2021/07/25 04:09:20;;;;;;;15.43;11.38;;;;;;;17.09;76.23;99626.13;5006558;28;20054;-62
2021/07/25 04:11:51;;;;;;;14.93;11.25;;;;;;;17.14;75.84;99633.66;4999142;28;20088;-61
2021/07/25 04:14:17;;;;;;;18.45;12.40;;;;;;;17.14;75.50;99631.78;5009885;28;20042;-66
2021/07/25 04:16:44;;;;;;;19.17;12.73;;;;;;;17.15;76.63;99638.88;5009705;28;20050;-62
2021/07/25 04:19:10;;;;;;;18.20;11.75;;;;;;;17.22;76.85;99637.03;5001575;28;20042;-64
2021/07/25 04:21:36;;;;;;;20.52;14.25;;;;;;;17.30;76.79;99638.75;4998448;28;20078;-64
2021/07/25 04:24:03;;;;;;;18.10;11.80;;;;;;;17.40;75.60;99636.47;4987969;28;20136;-64
2021/07/25 04:26:29;;;;;;;14.52;10.00;;;;;;;17.44;76.13;99635.03;5012329;28;20424;-63
2021/07/25 04:28:58;;;;;;;13.85;9.48;;;;;;;17.48;75.87;99643.59;5012143;28;20049;-63
2021/07/25 04:31:25;;;;;;;14.27;10.98;;;;;;;17.52;75.60;99639.44;5007048;28;20128;-64
2021/07/25 04:33:53;;;;;;;17.35;12.45;;;;;;;17.60;75.18;99622.97;5001103;28;20427;-65
2021/07/25 04:36:25;;;;;;;18.50;14.18;;;;;;;17.63;75.38;99636.13;4999547;28;20475;-61
2021/07/25 04:38:52;;;;;;;17.80;13.63;;;;;;;17.70;75.50;99631.59;4997761;28;20061;-65
2021/07/25 04:41:22;;;;;;;15.70;11.30;;;;;;;17.77;74.96;99631.63;5012836;28;20096;-64
2021/07/25 04:43:53;;;;;;;14.75;10.73;;;;;;;17.86;75.07;99630.38;5007999;28;20057;-67
2021/07/25 04:46:25;;;;;;;15.43;11.05;;;;;;;17.97;74.69;99628.94;5010660;28;20467;-64
2021/07/25 04:48:59;;;;;;;17.55;11.98;;;;;;;18.09;73.66;99633.53;4998261;28;20144;-65
2021/07/25 04:51:26;;;;;;;15.88;10.70;;;;;;;18.32;73.45;99635.84;5003703;28;20112;-65
2021/07/25 04:53:55;;;;;;;17.02;12.48;;;;;;;18.56;72.83;99636.25;5012119;28;20050;-63
2021/07/25 04:56:23;;;;;;;16.95;12.15;;;;;;;18.77;72.63;99640.66;5011240;28;20341;-65
2021/07/25 04:58:56;;;;;;;19.73;14.05;;;;;;;18.88;73.20;99640.00;4998841;28;20124;-62
2021/07/25 05:01:26;;;;;;;19.08;13.32;;;;;;;18.92;73.45;99636.63;4996020;28;20112;-64
2021/07/25 05:03:53;;;;;;;20.42;14.00;;;;;;;18.91;73.80;99629.53;5008152;28;20456;-63
2021/07/25 05:06:22;;;;;;;18.95;13.32;;;;;;;18.92;73.95;99643.97;5006450;28;20049;-66
2021/07/25 05:08:48;;;;;;;18.63;13.43;;;;;;;18.95;74.91;99638.13;5009541;28;20504;-63
2021/07/25 05:11:18;;;;;;;20.98;14.57;;;;;;;18.92;74.85;99642.06;5007003;28;20146;-65
2021/07/25 05:13:47;;;;;;;23.73;14.43;;;;;;;18.97;74.20;99638.75;5008537;28;20046;-62
2021/07/25 05:16:26;;;;;;;22.23;14.60;;;;;;;19.02;70.34;99632.66;5003880;28;21247;-63
2021/07/25 05:19:04;;;;;;;21.77;14.95;;;;;;;19.14;70.23;99630.94;4998734;28;20137;-64
2021/07/25 05:21:34;;;;;;;18.13;13.60;;;;;;;19.26;69.18;99635.50;5004342;28;20112;-64
2021/07/25 05:24:03;;;;;;;17.70;13.52;;;;;;;19.38;67.98;99640.25;5000546;28;20441;-64
2021/07/25 05:26:30;;;;;;;22.10;14.20;;;;;;;19.48;67.75;99629.75;5007154;28;20073;-64
2021/07/25 05:28:58;;;;;;;18.45;13.15;;;;;;;19.56;67.30;99630.38;5011435;28;20488;-67
2021/07/25 05:31:30;;;;;;;21.52;16.10;;;;;;;19.55;67.45;99631.44;5007392;28;20104;-61
2021/07/25 05:33:58;;;;;;;21.45;15.38;;;;;;;19.51;68.02;99632.03;4995467;28;20042;-64
2021/07/25 05:36:24;;;;;;;19.92;14.30;;;;;;;19.58;68.67;99640.22;5008156;28;20100;-65
2021/07/25 05:38:51;;;;;;;21.13;14.82;;;;;;;19.60;69.23;99643.53;5004208;28;20104;-65
2021/07/25 05:41:17;;;;;;;19.88;14.13;;;;;;;19.59;69.66;99659.03;5006527;28;20065;-62
2021/07/25 05:43:44;;;;;;;19.08;15.38;;;;;;;19.46;72.88;99659.06;4988938;28;20504;-65
2021/07/25 05:46:10;;;;;;;19.77;14.93;;;;;;;19.56;73.34;99654.03;5002256;28;20054;-66
2021/07/25 05:48:36;;;;;;;22.25;15.05;;;;;;;19.78;69.65;99651.84;5007019;28;20385;-63
2021/07/25 05:51:04;;;;;;;19.33;14.20;;;;;;;19.95;67.47;99639.34;5011201;28;20078;-66
2021/07/25 05:53:31;;;;;;;22.50;14.05;;;;;;;20.02;66.06;99642.88;5011346;28;20530;-65
2021/07/25 05:55:57;;;;;;;18.58;13.00;;;;;;;20.08;66.63;99646.59;5010917;28;20074;-66
2021/07/25 05:58:24;;;;;;;18.73;13.13;;;;;;;20.05;67.39;99630.72;5008476;28;20101;-66
2021/07/25 06:00:52;;;;;;;15.55;11.98;;;;;;;19.95;67.73;99635.81;5006164;28;20054;-66
2021/07/25 06:03:18;;;;;;;17.02;12.77;;;;;;;19.89;67.55;99626.63;5003021;28;20092;-64
2021/07/25 06:05:44;;;;;;;16.08;11.88;;;;;;;20.02;66.61;99632.00;5003142;28;20513;-65
2021/07/25 06:08:12;;;;;;;16.75;11.30;;;;;;;20.13;65.44;99627.72;5001726;28;20077;-65
2021/07/25 06:10:41;;;;;;;17.25;12.15;;;;;;;20.28;64.63;99633.69;5008603;28;20095;-64
2021/07/25 06:13:08;;;;;;;20.85;13.63;;;;;;;20.50;64.81;99636.88;5009487;28;20217;-65
2021/07/25 06:15:35;;;;;;;19.90;10.18;;;;;;;20.70;63.83;99631.22;5011089;28;20077;-66
2021/07/25 06:18:05;;;;;;;17.92;13.70;;;;;;;20.91;61.59;99628.06;5003521;28;20073;-65
2021/07/25 06:20:31;;;;;;;19.08;13.30;;;;;;;21.05;60.46;99619.75;5009110;28;20476;-65
2021/07/25 06:22:59;;;;;;;19.00;12.88;;;;;;;21.38;60.50;99631.13;4996830;23;20074;-65
2021/07/25 06:25:29;;;;;;;16.55;10.98;;;;;;;21.60;59.74;99624.13;5005361;28;20502;-63
2021/07/25 06:27:58;;;;;;;15.85;10.95;;;;;;;21.84;59.13;99622.31;5008757;28;20088;-63
2021/07/25 06:30:26;;;;;;;20.92;11.85;;;;;;;22.07;60.07;99628.94;5008170;28;20058;-63
2021/07/25 06:32:54;;;;;;;15.95;11.85;;;;;;;22.14;57.89;99635.97;5001524;28;20133;-66
2021/07/25 06:35:21;;;;;;;16.92;12.10;;;;;;;22.09;59.33;99638.56;4990202;28;20075;-64
2021/07/25 06:37:47;;;;;;;15.48;11.30;;;;;;;22.05;59.97;99633.78;4995112;28;20050;-64
2021/07/25 06:40:14;;;;;;;16.45;11.77;;;;;;;22.21;58.14;99635.03;4993685;28;20105;-61
2021/07/25 06:42:43;;;;;;;15.80;11.35;;;;;;;22.37;57.04;99637.06;5006598;28;20412;-65
2021/07/25 06:45:10;;;;;;;15.00;10.55;;;;;;;22.59;55.86;99638.16;4985950;28;20054;-64
2021/07/25 06:47:37;;;;;;;17.73;11.65;;;;;;;22.70;56.96;99633.78;4990881;28;20046;-65
2021/07/25 06:50:03;;;;;;;16.25;11.20;;;;;;;22.81;55.68;99635.69;4991512;28;20097;-66
2021/07/25 06:52:30;;;;;;;17.65;12.15;;;;;;;23.04;55.75;99640.31;4987218;28;20054;-63
2021/07/25 06:54:56;;;;;;;13.73;10.10;;;;;;;23.30;55.22;99638.97;4990077;28;20070;-62
2021/07/25 06:57:23;;;;;;;17.50;11.02;;;;;;;23.45;53.86;99642.03;4989494;28;20078;-64
2021/07/25 06:59:50;;;;;;;17.30;12.23;;;;;;;23.36;53.20;99631.72;4990633;28;20053;-64
2021/07/25 07:02:16;;;;;;;17.88;12.25;;;;;;;23.60;53.10;99636.06;4988978;28;20097;-65
2021/07/25 07:04:43;;;;;;;18.83;11.98;;;;;;;23.97;51.60;99635.66;4978525;28;20216;-65
2021/07/25 07:07:09;;;;;;;16.08;12.38;;;;;;;24.18;49.88;99646.75;4990479;28;20101;-65
2021/07/25 07:09:36;;;;;;;17.80;12.43;;;;;;;24.13;50.13;99641.16;4990648;28;20144;-61
2021/07/25 07:12:02;;;;;;;17.58;12.20;;;;;;;24.29;50.40;99646.94;4989226;28;20101;-62
2021/07/25 07:14:29;;;;;;;17.35;12.13;;;;;;;24.18;51.40;99648.66;4987234;28;20104;-63
2021/07/25 07:16:56;;;;;;;19.48;12.50;;;;;;;24.17;50.82;99642.34;4997542;28;20475;-64
2021/07/25 07:19:22;;;;;;;18.90;12.43;;;;;;;24.16;50.98;99643.44;4990069;28;20133;-65
2021/07/25 07:21:49;;;;;;;17.85;11.77;;;;;;;24.39;50.55;99637.00;4994784;28;20066;-63
2021/07/25 07:24:15;;;;;;;17.08;12.38;;;;;;;24.46;49.86;99645.88;4986829;28;21476;-63
2021/07/25 07:26:41;;;;;;;17.75;13.23;;;;;;;24.63;50.37;99647.81;4998586;28;20069;-64
2021/07/25 07:29:08;;;;;;;18.10;13.10;;;;;;;24.81;50.37;99658.50;4994756;28;20065;-63
2021/07/25 07:31:34;;;;;;;54.20;14.70;;;;;;;24.92;49.67;99646.59;4996399;28;20054;-64
2021/07/25 07:34:02;;;;;;;18.58;13.45;;;;;;;24.98;49.05;99650.22;4990186;28;20143;-65
2021/07/25 07:36:28;;;;;;;15.52;12.05;;;;;;;25.42;50.05;99639.31;4990129;28;20113;-62
2021/07/25 07:38:54;;;;;;;16.52;12.70;;;;;;;25.43;49.47;99635.47;4983566;28;20500;-65
2021/07/25 07:41:21;;;;;;;19.95;12.98;;;;;;;25.19;49.01;99634.91;4990575;28;20124;-65
2021/07/25 07:43:47;;;;;;;17.13;12.60;;;;;;;25.61;49.24;99637.91;4994936;28;20092;-64
2021/07/25 07:46:14;;;;;;;19.83;12.68;;;;;;;25.45;47.69;99633.28;4990395;28;20132;-63
2021/07/25 07:48:41;;;;;;;20.88;13.18;;;;;;;25.62;47.26;99634.91;4988226;28;20056;-67
2021/07/25 07:51:08;;;;;;;15.68;11.13;;;;;;;25.95;47.15;99633.09;4990681;28;20108;-63
2021/07/25 07:53:35;;;;;;;17.40;12.50;;;;;;;25.89;46.97;99632.19;4989913;28;20500;-63
2021/07/25 07:56:01;;;;;;;14.52;11.30;;;;;;;26.22;46.69;99633.06;4998568;28;20132;-63
2021/07/25 07:58:27;;;;;;;17.08;12.38;;;;;;;26.34;46.59;99630.13;4999130;28;20050;-64
2021/07/25 08:00:54;;;;;;;18.90;12.60;;;;;;;26.14;46.62;99630.78;4989664;28;20109;-63
2021/07/25 08:03:20;;;;;;;18.10;12.27;;;;;;;26.34;45.84;99630.97;4997919;28;20161;-62
2021/07/25 08:05:46;;;;;;;21.17;13.73;;;;;;;26.23;45.78;99631.97;4992899;28;20046;-64
2021/07/25 08:08:14;;;;;;;15.93;11.68;;;;;;;26.63;44.44;99636.16;4989961;28;20046;-65
2021/07/25 08:10:40;;;;;;;15.13;12.20;;;;;;;26.82;46.32;99631.91;4997858;28;20076;-65
2021/07/25 08:13:06;;;;;;;17.05;12.60;;;;;;;27.07;45.46;99629.34;4989131;28;20046;-63
2021/07/25 08:15:33;;;;;;;14.82;11.80;;;;;;;27.62;45.09;99624.34;5001164;28;20045;-65
2021/07/25 08:18:01;;;;;;;16.73;11.48;;;;;;;28.11;42.50;99629.44;5007926;28;20053;-64
2021/07/25 08:20:28;;;;;;;17.67;12.35;;;;;;;28.09;41.57;99631.66;5007040;28;20050;-63
2021/07/25 08:22:55;;;;;;;12.57;10.68;;;;;;;28.12;42.46;99622.81;4992017;28;20093;-65
2021/07/25 08:25:23;;;;;;;14.63;11.77;;;;;;;28.15;42.17;99623.09;4989060;28;20121;-64
2021/07/25 08:27:49;;;;;;;16.42;12.77;;;;;;;27.67;42.69;99616.94;4992202;28;20050;-63
2021/07/25 08:30:15;;;;;;;17.63;12.57;;;;;;;27.36;43.55;99615.16;4997648;28;20089;-64
2021/07/25 08:32:42;;;;;;;17.25;12.57;;;;;;;27.43;43.56;99621.22;4996252;28;20055;-63
2021/07/25 08:35:09;;;;;;;16.30;13.02;;;;;;;27.54;43.66;99613.84;4989143;28;20139;-63
2021/07/25 08:37:35;;;;;;;15.95;12.25;;;;;;;27.10;44.85;99620.53;4996459;28;20083;-64
2021/07/25 08:40:02;;;;;;;13.27;10.30;;;;;;;27.49;45.46;99630.38;4997527;28;20116;-65
2021/07/25 08:42:36;;;;;;;16.98;13.32;;;;;;;27.70;43.62;99625.75;4996410;28;20057;-64
2021/07/25 08:45:04;;;;;;;18.37;13.57;;;;;;;27.56;46.52;99634.50;5002026;28;20082;-64
2021/07/25 08:47:38;;;;;;;15.63;11.88;;;;;;;27.57;45.15;99641.66;5004264;28;20467;-63
2021/07/25 08:50:10;;;;;;;23.00;13.98;;;;;;;27.85;45.06;99640.44;4991260;28;20050;-65
2021/07/25 08:52:39;;;;;;;20.85;14.02;;;;;;;27.98;45.27;99639.06;4991354;28;20078;-64
2021/07/25 08:55:08;;;;;;;15.40;12.55;;;;;;;28.41;44.13;99642.44;4990345;28;20120;-65
2021/07/25 08:57:38;;;;;;;17.48;12.95;;;;;;;28.91;43.06;99638.84;5005723;28;20073;-66
2021/07/25 09:00:07;;;;;;;15.77;12.07;;;;;;;29.06;40.22;99630.53;5004524;28;20050;-63
2021/07/25 09:02:34;;;;;;;14.82;11.80;;;;;;;28.62;40.13;99633.06;5009515;28;20127;-66
2021/07/25 09:05:01;;;;;;;16.83;12.43;;;;;;;28.32;41.97;99630.31;5002895;28;20046;-64
2021/07/25 09:07:30;;;;;;;18.58;12.82;;;;;;;28.01;41.89;99632.19;5001577;28;20054;-65
2021/07/25 09:09:58;;;;;;;14.45;11.27;;;;;;;28.53;40.80;99634.69;5002908;28;20101;-65
2021/07/25 09:12:26;;;;;;;15.40;12.40;;;;;;;27.99;42.25;99629.69;4997400;28;20073;-63
2021/07/25 09:14:56;;;;;;;16.58;13.15;;;;;;;27.87;42.95;99635.47;4995417;28;20464;-65
2021/07/25 09:17:22;;;;;;;15.73;12.55;;;;;;;28.05;42.05;99639.63;4999812;28;20500;-65
2021/07/25 09:20:12;;;;;;;17.13;13.40;;;;;;;27.94;41.18;99638.81;4992173;28;20050;-64
2021/07/25 09:22:40;;;;;;;17.23;12.43;;;;;;;28.10;42.39;99639.66;5006298;28;20061;-66
2021/07/25 09:25:07;;;;;;;16.95;13.18;;;;;;;28.69;42.35;99639.13;5010837;28;20054;-64
2021/07/25 09:27:33;;;;;;;19.10;12.35;;;;;;;28.75;40.73;99637.19;5002762;28;20096;-66
2021/07/25 09:30:16;;;;;;;18.20;12.30;;;;;;;29.02;42.09;99631.38;5002662;28;20050;-66
2021/07/25 09:32:43;;;;;;;14.93;12.10;;;;;;;28.95;43.72;99633.59;4996740;28;20052;-65
2021/07/25 09:35:23;;;;;;;18.05;12.82;;;;;;;28.70;40.17;99629.75;4992086;28;20077;-65
2021/07/25 09:37:51;;;;;;;17.58;13.88;;;;;;;28.65;40.46;99628.91;4990056;28;20108;-65
2021/07/25 09:40:26;;;;;;;18.75;11.90;;;;;;;29.28;38.73;99641.22;5004983;28;20430;-65
2021/07/25 09:43:08;;;;;;;18.35;13.40;;;;;;;28.69;40.61;99625.31;5001044;28;20072;-65
2021/07/25 09:45:55;;;;;;;14.98;12.20;;;;;;;29.44;40.87;99627.34;5004130;28;20048;-63
2021/07/25 09:48:22;;;;;;;13.60;12.15;;;;;;;29.66;38.78;99625.06;4994480;28;20050;-65
2021/07/25 09:50:49;;;;;;;16.00;13.60;;;;;;;29.82;38.76;99623.03;4993924;28;20104;-64
2021/07/25 09:53:16;;;;;;;17.60;12.55;;;;;;;30.08;38.51;99623.75;4996284;28;20055;-65
2021/07/25 09:55:43;;;;;;;15.50;12.70;;;;;;;29.14;39.21;99622.78;4994838;28;20046;-66
2021/07/25 09:58:10;;;;;;;19.90;13.55;;;;;;;28.74;40.23;99625.31;4997350;28;20127;-63
2021/07/25 10:00:42;;;;;;;15.95;12.95;;;;;;;28.44;40.44;99623.41;4999667;28;20120;-64
2021/07/25 10:03:24;;;;;;;16.63;11.85;;;;;;;28.90;39.46;99628.09;4989789;28;20153;-63
2021/07/25 10:05:51;;;;;;;15.38;12.23;;;;;;;28.59;39.52;99622.56;4997291;28;20361;-63
2021/07/25 10:08:19;;;;;;;19.33;11.77;;;;;;;29.06;37.77;99625.00;4996514;28;20061;-63
2021/07/25 10:10:47;;;;;;;14.68;12.43;;;;;;;29.14;39.76;99623.59;4994713;28;20503;-65
2021/07/25 10:13:16;;;;;;;16.00;12.43;;;;;;;29.25;39.93;99622.47;4997838;28;20042;-62
2021/07/25 10:15:51;;;;;;;14.77;12.35;;;;;;;29.82;39.07;99621.09;5006225;28;20447;-63
2021/07/25 10:18:18;;;;;;;16.27;11.10;;;;;;;30.51;35.91;99614.50;4992725;28;20543;-65
2021/07/25 10:20:45;;;;;;;13.63;11.10;;;;;;;31.07;34.73;99618.69;4999464;28;20475;-61
2021/07/25 10:23:15;;;;;;;14.73;11.30;;;;;;;30.37;35.66;99621.84;4997697;28;20528;-65
2021/07/25 10:25:45;;;;;;;14.25;11.27;;;;;;;30.54;34.69;99622.22;4994223;28;20046;-64
2021/07/25 10:28:12;;;;;;;14.93;11.30;;;;;;;30.32;36.53;99616.34;4991564;28;20101;-64
2021/07/25 10:30:39;;;;;;;16.23;11.30;;;;;;;29.90;37.45;99627.97;4991751;28;20054;-64
2021/07/25 10:33:07;;;;;;;13.50;11.23;;;;;;;29.38;37.65;99624.63;4988422;28;20109;-64
2021/07/25 10:35:34;;;;;;;13.20;10.82;;;;;;;29.72;36.69;99628.59;4999112;28;20136;-66
2021/07/25 10:38:02;;;;;;;17.30;12.30;;;;;;;29.60;39.75;99621.50;4998378;28;20129;-64
2021/07/25 10:40:29;;;;;;;13.20;10.43;;;;;;;29.53;37.60;99625.69;4991636;28;20137;-63
2021/07/25 10:42:55;;;;;;;14.68;9.73;;;;;;;29.99;37.77;99629.00;5006039;28;20496;-67
2021/07/25 10:45:22;;;;;;;14.98;10.50;;;;;;;30.17;36.89;99620.03;5006451;28;20046;-64
2021/07/25 10:47:49;;;;;;;16.52;12.00;;;;;;;30.01;36.20;99625.97;5004665;28;20050;-66
2021/07/25 10:50:20;;;;;;;12.48;10.55;;;;;;;30.24;36.11;99630.81;4993395;28;20046;-64
2021/07/25 10:53:03;;;;;;;14.77;11.88;;;;;;;29.76;39.67;99627.78;5005094;28;20586;-65
2021/07/25 10:55:47;;;;;;;15.23;12.82;;;;;;;29.81;40.19;99632.44;4994997;28;20505;-65
2021/07/25 10:58:16;;;;;;;13.30;10.43;;;;;;;30.31;39.03;99625.78;4996367;28;20065;-64
2021/07/25 11:00:45;;;;;;;18.50;11.82;;;;;;;30.08;37.36;99623.75;4998054;28;20050;-63
2021/07/25 11:03:51;;;;;;;14.88;12.00;;;;;;;29.19;39.37;99626.34;5001102;28;20050;-64
2021/07/25 11:06:19;;;;;;;17.27;10.95;;;;;;;29.10;40.76;99628.00;4993754;28;20497;-63
2021/07/25 11:08:49;;;;;;;13.10;10.38;;;;;;;28.99;40.31;99621.69;4995455;28;20416;-65
2021/07/25 11:11:51;;;;;;;12.90;11.27;;;;;;;29.29;39.55;99626.31;4994334;28;20069;-65
2021/07/25 11:15:09;;;;;;;14.02;10.73;;;;;;;29.48;39.79;99621.00;4997653;28;20071;-65
2021/07/25 11:17:52;;;;;;;13.65;10.40;;;;;;;29.22;41.95;99634.06;4977103;28;20431;-64
2021/07/25 11:20:35;;;;;;;14.80;12.50;;;;;;;29.07;42.91;99636.88;4989318;28;20046;-64
2021/07/25 11:23:05;;;;;;;15.38;12.80;;;;;;;29.47;41.05;99630.38;4998780;28;20072;-63
2021/07/25 11:25:34;;;;;;;18.20;13.57;;;;;;;29.92;40.75;99628.50;4996072;28;20360;-64